createdAt,value
2023-10-23T00:00:11.603Z,4.00
2023-10-23T00:02:39.970Z,4.20
2023-10-23T00:05:07.531Z,3.28
2023-10-23T00:07:34.344Z,3.30
2023-10-23T00:10:01.123Z,3.88
2023-10-23T00:12:30.498Z,4.07
2023-10-23T00:14:57.113Z,3.40
2023-10-23T00:17:23.776Z,3.55
2023-10-23T00:19:50.319Z,4.32
2023-10-23T00:22:16.870Z,4.75
2023-10-23T00:24:43.491Z,4.57
2023-10-23T00:27:10.076Z,5.22
2023-10-23T00:29:37.940Z,4.50
2023-10-23T00:32:04.697Z,4.82
2023-10-23T00:34:31.328Z,4.90
2023-10-23T00:36:57.940Z,5.15
2023-10-23T00:39:24.568Z,5.03
2023-10-23T00:41:51.138Z,4.50
2023-10-23T00:44:17.688Z,4.07
2023-10-23T00:46:45.237Z,4.32
2023-10-23T00:49:11.992Z,4.53
2023-10-23T00:51:38.879Z,5.72
2023-10-23T00:54:06.474Z,4.50
2023-10-23T00:56:33.764Z,4.88
2023-10-23T00:59:00.333Z,5.00
2023-10-23T01:01:27.864Z,4.28
2023-10-23T01:03:54.541Z,4.60
2023-10-23T01:06:21.701Z,5.43
2023-10-23T01:08:48.332Z,5.20
2023-10-23T01:11:15.072Z,5.10
2023-10-23T01:13:41.719Z,5.18
2023-10-23T01:16:08.631Z,6.05
2023-10-23T01:18:35.399Z,5.32
2023-10-23T01:21:02.031Z,6.05
2023-10-23T01:23:30.057Z,5.78
2023-10-23T01:25:56.643Z,5.72
2023-10-23T01:28:23.266Z,5.93
2023-10-23T01:30:50.047Z,5.82
2023-10-23T01:33:16.830Z,5.85
2023-10-23T01:35:43.592Z,5.68
2023-10-23T01:38:10.181Z,5.22
2023-10-23T01:40:36.713Z,6.18
2023-10-23T01:43:03.440Z,5.20
2023-10-23T01:45:30.038Z,6.22
2023-10-23T01:47:56.692Z,5.90
2023-10-23T01:50:24.987Z,5.53
2023-10-23T01:52:52.009Z,6.15
2023-10-23T01:55:18.783Z,6.03
2023-10-23T01:57:45.434Z,5.82
2023-10-23T02:00:12.737Z,5.47
2023-10-23T02:02:39.336Z,7.65
2023-10-23T02:05:06.067Z,6.20
2023-10-23T02:07:32.615Z,6.00
2023-10-23T02:09:59.240Z,6.95
2023-10-23T02:12:25.916Z,7.57
2023-10-23T02:14:54.241Z,10.77
2023-10-23T02:17:21.347Z,8.63
2023-10-23T02:19:48.888Z,7.75
2023-10-23T02:22:16.784Z,7.55
2023-10-23T02:24:43.364Z,7.72
2023-10-23T02:27:09.949Z,7.65
2023-10-23T02:29:36.616Z,8.30
2023-10-23T02:32:03.336Z,9.55
2023-10-23T02:34:30.098Z,8.63
2023-10-23T02:36:56.944Z,9.18
2023-10-23T02:39:23.959Z,8.75
2023-10-23T02:41:50.705Z,8.82
2023-10-23T02:44:17.648Z,9.57
2023-10-23T02:46:44.309Z,9.65
2023-10-23T02:49:11.025Z,11.57
2023-10-23T02:51:39.585Z,10.27
2023-10-23T02:54:06.558Z,10.02
2023-10-23T02:56:34.257Z,10.77
2023-10-23T02:59:01.072Z,10.23
2023-10-23T03:01:27.818Z,10.45
2023-10-23T03:03:54.596Z,11.20
2023-10-23T03:06:21.826Z,11.32
2023-10-23T03:08:48.753Z,10.27
2023-10-23T03:11:15.358Z,10.05
2023-10-23T03:13:42.004Z,9.82
2023-10-23T03:16:08.789Z,10.68
2023-10-23T03:18:35.557Z,10.45
2023-10-23T03:21:02.465Z,11.18
2023-10-23T03:23:29.658Z,11.65
2023-10-23T03:25:57.578Z,10.82
2023-10-23T03:28:24.470Z,11.85
2023-10-23T03:30:51.297Z,11.77
2023-10-23T03:33:18.111Z,12.20
2023-10-23T03:35:45.464Z,10.73
2023-10-23T03:38:13.734Z,10.40
2023-10-23T03:40:40.346Z,12.43
2023-10-23T03:43:06.890Z,11.75
2023-10-23T03:45:37.362Z,11.02
2023-10-23T03:48:04.305Z,11.70
2023-10-23T03:50:31.668Z,9.98
2023-10-23T03:52:58.826Z,11.10
2023-10-23T03:55:25.564Z,10.50
2023-10-23T03:57:52.296Z,11.00
2023-10-23T04:00:18.981Z,11.00
2023-10-23T04:02:45.720Z,10.18
2023-10-23T04:05:12.307Z,10.25
2023-10-23T04:07:39.012Z,12.38
2023-10-23T04:10:09.901Z,11.68
2023-10-23T04:12:36.608Z,10.45
2023-10-23T04:15:03.539Z,12.27
2023-10-23T04:17:30.437Z,11.77
2023-10-23T04:19:57.314Z,12.45
2023-10-23T04:22:24.091Z,10.00
2023-10-23T04:24:50.885Z,11.35
2023-10-23T04:27:17.540Z,10.65
2023-10-23T04:29:44.241Z,10.60
2023-10-23T04:32:10.827Z,9.73
2023-10-23T04:34:37.537Z,9.88
2023-10-23T04:37:04.622Z,10.00
2023-10-23T04:39:31.234Z,10.05
2023-10-23T04:41:58.008Z,10.88
2023-10-23T04:44:24.715Z,11.68
2023-10-23T04:46:51.349Z,12.15
2023-10-23T04:49:18.040Z,10.65
2023-10-23T04:51:44.669Z,10.00
2023-10-23T04:54:11.427Z,11.60
2023-10-23T04:56:37.973Z,12.43
2023-10-23T04:59:05.465Z,12.15
2023-10-23T05:01:32.086Z,11.07
2023-10-23T05:03:58.788Z,10.82
2023-10-23T05:06:28.773Z,11.15
2023-10-23T05:08:55.642Z,10.88
2023-10-23T05:11:22.284Z,11.07
2023-10-23T05:13:49.050Z,11.02
2023-10-23T05:16:15.734Z,11.98
2023-10-23T05:18:42.389Z,11.10
2023-10-23T05:21:09.731Z,10.52
2023-10-23T05:23:36.320Z,10.88
2023-10-23T05:26:03.039Z,11.05
2023-10-23T05:28:29.628Z,10.35
2023-10-23T05:30:56.255Z,10.40
2023-10-23T05:33:23.065Z,10.02
2023-10-23T05:35:49.735Z,11.68
2023-10-23T05:38:16.800Z,11.43
2023-10-23T05:40:43.571Z,11.00
2023-10-23T05:43:10.182Z,9.95
2023-10-23T05:45:39.916Z,11.32
2023-10-23T05:48:06.761Z,10.65
2023-10-23T05:50:33.383Z,11.30
2023-10-23T05:53:00.095Z,10.18
2023-10-23T05:55:26.770Z,9.40
2023-10-23T05:57:53.756Z,11.40
2023-10-23T06:00:20.376Z,11.35
2023-10-23T06:02:46.975Z,12.90
2023-10-23T06:05:13.944Z,11.15
2023-10-23T06:07:40.590Z,11.48
2023-10-23T06:10:07.494Z,10.23
2023-10-23T06:12:34.270Z,11.95
2023-10-23T06:15:00.983Z,11.57
2023-10-23T06:17:27.645Z,11.63
2023-10-23T06:19:54.358Z,10.80
2023-10-23T06:22:20.913Z,12.32
2023-10-23T06:24:47.561Z,13.43
2023-10-23T06:27:14.318Z,11.00
2023-10-23T06:29:41.011Z,12.02
2023-10-23T06:32:07.778Z,10.48
2023-10-23T06:34:34.512Z,10.73
2023-10-23T06:37:01.102Z,12.10
2023-10-23T06:39:27.689Z,14.20
2023-10-23T06:41:54.471Z,11.35
2023-10-23T06:44:21.375Z,15.82
2023-10-23T06:46:47.940Z,13.93
2023-10-23T06:49:14.536Z,20.42
2023-10-23T06:51:41.127Z,17.88
2023-10-23T06:54:07.882Z,17.77
2023-10-23T06:56:34.630Z,14.27
2023-10-23T06:59:01.209Z,15.27
2023-10-23T07:01:41.654Z,13.20
2023-10-23T07:04:11.624Z,12.82
2023-10-23T07:06:38.488Z,13.43
2023-10-23T07:09:05.952Z,12.18
2023-10-23T07:11:32.521Z,11.45
2023-10-23T07:13:59.071Z,10.80
2023-10-23T07:16:26.857Z,12.25
2023-10-23T07:18:53.592Z,11.10
2023-10-23T07:21:23.274Z,10.68
2023-10-23T07:23:50.085Z,11.15
2023-10-23T07:26:16.768Z,12.63
2023-10-23T07:28:43.420Z,12.13
2023-10-23T07:31:10.904Z,11.25
2023-10-23T07:33:37.840Z,10.57
2023-10-23T07:36:05.185Z,11.18
2023-10-23T07:38:32.273Z,10.65
2023-10-23T07:40:59.306Z,11.43
2023-10-23T07:43:29.543Z,11.40
2023-10-23T07:46:12.079Z,10.38
2023-10-23T07:48:41.886Z,10.20
2023-10-23T07:51:08.664Z,9.50
2023-10-23T07:53:36.831Z,9.45
2023-10-23T07:56:05.609Z,9.73
2023-10-23T07:58:32.567Z,9.75
2023-10-23T08:01:06.508Z,9.05
2023-10-23T08:03:35.484Z,9.25
2023-10-23T08:06:06.053Z,8.68
2023-10-23T08:08:33.170Z,8.30
2023-10-23T08:10:59.911Z,8.13
2023-10-23T08:13:26.526Z,7.40
2023-10-23T08:15:54.001Z,9.18
2023-10-23T08:18:34.475Z,8.05
2023-10-23T08:21:15.598Z,8.23
2023-10-23T08:23:43.009Z,7.22
2023-10-23T08:26:09.741Z,8.88
2023-10-23T08:28:54.272Z,8.48
2023-10-23T08:31:36.926Z,8.38
2023-10-23T08:34:04.700Z,7.75
2023-10-23T08:36:31.618Z,8.35
2023-10-23T08:38:58.220Z,8.85
2023-10-23T08:41:26.973Z,8.00
2023-10-23T08:43:53.938Z,9.60
2023-10-23T08:46:21.526Z,7.53
2023-10-23T08:48:48.234Z,7.28
2023-10-23T08:51:15.944Z,7.68
2023-10-23T08:54:09.379Z,7.22
2023-10-23T08:56:38.845Z,7.35
2023-10-23T08:59:05.858Z,8.02
2023-10-23T09:01:36.883Z,10.73
2023-10-23T09:04:05.961Z,7.38
2023-10-23T09:06:33.838Z,6.35
2023-10-23T09:09:00.838Z,6.43
2023-10-23T09:11:47.214Z,8.38
2023-10-23T09:14:25.121Z,7.15
2023-10-23T09:16:52.680Z,8.32
2023-10-23T09:19:34.230Z,6.03
2023-10-23T09:24:27.425Z,6.93
2023-10-23T09:26:54.143Z,5.55
2023-10-23T09:29:24.351Z,6.20
2023-10-23T09:31:51.504Z,4.95
2023-10-23T09:34:19.744Z,6.38
2023-10-23T09:36:51.820Z,5.40
2023-10-23T09:39:19.190Z,4.70
2023-10-23T09:41:49.177Z,5.03
2023-10-23T09:44:16.346Z,5.78
2023-10-23T09:46:44.111Z,4.97
2023-10-23T09:49:11.331Z,4.38
2023-10-23T09:51:42.067Z,4.82
2023-10-23T09:54:08.813Z,5.53
2023-10-23T09:56:36.137Z,8.20
2023-10-23T09:59:07.628Z,5.40
2023-10-23T10:01:39.562Z,4.90
2023-10-23T10:04:14.107Z,4.20
2023-10-23T10:06:43.187Z,6.05
2023-10-23T10:09:13.691Z,4.00
2023-10-23T10:11:46.581Z,4.15
2023-10-23T10:14:13.807Z,4.53
2023-10-23T10:16:41.440Z,3.95
2023-10-23T10:19:09.285Z,4.03
2023-10-23T10:21:50.703Z,3.88
2023-10-23T10:26:44.031Z,3.80
2023-10-23T10:29:11.373Z,5.78
2023-10-23T10:31:57.119Z,5.13
2023-10-23T10:34:30.394Z,4.15
2023-10-23T10:37:01.117Z,4.03
2023-10-23T10:39:47.687Z,4.20
2023-10-23T10:42:24.561Z,4.72
2023-10-23T10:44:54.614Z,4.30
2023-10-23T10:47:21.874Z,5.05
2023-10-23T10:49:48.948Z,6.00
2023-10-23T10:52:29.933Z,4.90
2023-10-23T10:54:57.027Z,4.47
2023-10-23T10:57:23.780Z,4.55
2023-10-23T10:59:59.522Z,5.72
2023-10-23T11:02:26.486Z,7.82
2023-10-23T11:04:53.236Z,4.03
2023-10-23T11:07:24.423Z,2.97
2023-10-23T11:09:51.608Z,3.58
2023-10-23T11:12:22.112Z,3.58
2023-10-23T11:14:49.007Z,3.40
2023-10-23T11:17:16.391Z,4.82
2023-10-23T11:19:43.320Z,4.82
2023-10-23T11:22:11.434Z,2.90
2023-10-23T11:24:38.564Z,3.00
2023-10-23T11:27:08.793Z,3.28
2023-10-23T11:29:42.462Z,2.90
2023-10-23T11:32:09.694Z,3.75
2023-10-23T11:34:37.103Z,3.17
2023-10-23T11:37:04.690Z,2.97
2023-10-23T11:39:31.734Z,3.60
2023-10-23T11:41:58.896Z,3.10
2023-10-23T11:44:26.420Z,3.20
2023-10-23T11:46:56.536Z,2.65
2023-10-23T11:49:26.203Z,2.78
2023-10-23T11:51:53.273Z,2.70
2023-10-23T11:54:20.887Z,2.58
2023-10-23T11:56:47.490Z,2.13
2023-10-23T11:59:23.430Z,3.13
2023-10-23T12:01:51.349Z,2.60
2023-10-23T12:04:18.052Z,2.38
2023-10-23T12:06:44.825Z,2.55
2023-10-23T12:09:11.962Z,2.65
2023-10-23T12:11:38.719Z,3.30
2023-10-23T12:14:05.303Z,2.45
2023-10-23T12:16:32.275Z,2.38
2023-10-23T12:18:59.041Z,3.38
2023-10-23T12:21:26.327Z,2.30
2023-10-23T12:23:53.493Z,2.55
2023-10-23T12:26:20.098Z,2.60
2023-10-23T12:28:46.681Z,2.80
2023-10-23T12:31:23.502Z,2.63
2023-10-23T12:33:51.284Z,3.03
2023-10-23T12:36:18.215Z,2.55
2023-10-23T12:38:45.083Z,2.47
2023-10-23T12:41:11.885Z,2.50
2023-10-23T12:43:38.913Z,2.85
2023-10-23T12:46:05.706Z,2.95
2023-10-23T12:48:32.525Z,3.03
2023-10-23T12:50:59.107Z,2.95
2023-10-23T12:53:25.962Z,2.30
2023-10-23T12:55:52.701Z,2.38
2023-10-23T12:58:19.378Z,3.30
2023-10-23T13:00:46.137Z,2.13
2023-10-23T13:03:12.769Z,4.70
2023-10-23T13:05:39.892Z,3.00
2023-10-23T13:08:06.726Z,2.40
2023-10-23T13:10:34.065Z,2.60
2023-10-23T13:13:00.783Z,2.45
2023-10-23T13:15:34.962Z,3.53
2023-10-23T13:18:02.928Z,3.08
2023-10-23T13:21:28.653Z,2.63
2023-10-23T13:23:16.192Z,3.33
2023-10-23T13:25:43.585Z,2.90
2023-10-23T13:28:12.636Z,2.65
2023-10-23T13:30:39.385Z,2.92
2023-10-23T13:33:06.214Z,2.80
2023-10-23T13:35:33.296Z,3.55
2023-10-23T13:37:59.860Z,2.70
2023-10-23T13:40:26.451Z,2.90
2023-10-23T13:42:53.138Z,2.40
2023-10-23T13:45:19.733Z,2.58
2023-10-23T13:47:46.564Z,2.10
2023-10-23T13:50:13.379Z,2.67
2023-10-23T13:52:41.146Z,2.80
2023-10-23T13:55:07.918Z,2.45
2023-10-23T13:57:34.554Z,2.92
2023-10-23T14:00:01.254Z,2.20
2023-10-23T14:02:27.971Z,2.80
2023-10-23T14:04:54.715Z,2.58
2023-10-23T14:07:21.382Z,2.30
2023-10-23T14:09:50.534Z,2.88
2023-10-23T14:12:19.373Z,2.70
2023-10-23T14:14:45.969Z,3.63
2023-10-23T14:17:12.654Z,4.00
2023-10-23T14:22:09.408Z,3.03
2023-10-23T14:24:36.071Z,3.33
2023-10-23T14:27:03.160Z,3.55
2023-10-23T14:29:30.013Z,3.15
2023-10-23T14:31:56.678Z,3.58
2023-10-23T14:34:25.074Z,4.03
2023-10-23T14:36:51.736Z,3.38
2023-10-23T14:39:18.386Z,3.95
2023-10-23T14:41:45.012Z,5.47
2023-10-23T14:44:11.566Z,4.88
2023-10-23T14:46:38.278Z,4.18
2023-10-23T14:49:05.022Z,3.35
2023-10-23T14:51:31.612Z,3.25
2023-10-23T14:53:58.256Z,2.97
2023-10-23T14:56:24.864Z,3.38
2023-10-23T14:58:51.482Z,3.20
2023-10-23T15:01:18.225Z,3.33
2023-10-23T15:03:44.990Z,2.97
2023-10-23T15:06:12.324Z,3.03
2023-10-23T15:08:39.241Z,2.92
2023-10-23T15:11:05.956Z,3.08
2023-10-23T15:13:33.304Z,2.92
2023-10-23T15:16:01.806Z,4.13
2023-10-23T15:18:28.466Z,3.08
2023-10-23T15:21:04.967Z,4.75
2023-10-23T15:23:31.882Z,4.22
2023-10-23T15:25:58.508Z,4.82
2023-10-23T15:28:25.677Z,3.92
2023-10-23T15:30:55.882Z,5.40
2023-10-23T15:33:23.028Z,6.05
2023-10-23T15:35:53.027Z,9.07
2023-10-23T15:38:21.873Z,14.18
2023-10-23T15:40:49.405Z,9.95
2023-10-23T15:43:16.901Z,9.73
2023-10-23T15:45:45.663Z,8.27
2023-10-23T15:48:12.584Z,8.05
2023-10-23T15:50:39.828Z,7.45
2023-10-23T15:53:06.552Z,7.00
2023-10-23T15:55:33.255Z,5.90
2023-10-23T15:58:00.071Z,5.88
2023-10-23T16:00:26.628Z,9.02
2023-10-23T16:02:53.228Z,11.30
2023-10-23T16:05:19.853Z,11.25
2023-10-23T16:07:46.410Z,15.27
2023-10-23T16:10:13.122Z,11.43
2023-10-23T16:12:39.751Z,13.18
2023-10-23T16:15:06.675Z,29.05
2023-10-23T16:17:33.223Z,45.42
2023-10-23T16:19:59.802Z,61.17
2023-10-23T16:22:27.082Z,31.08
2023-10-23T16:24:54.144Z,15.82
2023-10-23T16:27:20.749Z,12.15
2023-10-23T16:29:50.233Z,9.90
2023-10-23T16:32:17.843Z,9.07
2023-10-23T16:34:44.787Z,10.30
2023-10-23T16:37:11.601Z,10.90
2023-10-23T16:39:38.401Z,11.18
2023-10-23T16:42:05.296Z,9.70
2023-10-23T16:44:44.430Z,10.13
2023-10-23T16:47:15.485Z,12.07
2023-10-23T16:49:42.109Z,11.65
2023-10-23T16:52:08.750Z,11.73
2023-10-23T16:54:35.467Z,8.48
2023-10-23T16:57:02.343Z,8.95
2023-10-23T16:59:29.405Z,8.75
2023-10-23T17:01:56.306Z,9.35
2023-10-23T17:04:23.883Z,9.98
2023-10-23T17:06:50.524Z,7.07
2023-10-23T17:09:17.145Z,7.97
2023-10-23T17:11:45.434Z,8.20
2023-10-23T17:14:12.459Z,7.80
2023-10-23T17:16:39.082Z,9.18
2023-10-23T17:19:06.802Z,8.23
2023-10-23T17:21:33.486Z,8.70
2023-10-23T17:24:00.033Z,8.68
2023-10-23T17:26:28.596Z,10.02
2023-10-23T17:28:56.948Z,11.05
2023-10-23T17:31:23.656Z,12.55
2023-10-23T17:33:50.283Z,12.93
2023-10-23T17:36:18.541Z,13.57
2023-10-23T17:38:45.437Z,13.60
2023-10-23T17:41:18.545Z,13.55
2023-10-23T17:43:45.087Z,12.20
2023-10-23T17:46:11.807Z,14.80
2023-10-23T17:48:38.772Z,16.42
2023-10-23T17:51:09.702Z,18.00
2023-10-23T17:53:38.468Z,14.95
2023-10-23T17:56:09.281Z,9.70
2023-10-23T17:58:36.653Z,37.13
2023-10-23T18:01:08.743Z,41.50
2023-10-23T18:03:35.569Z,37.83
2023-10-23T18:06:04.197Z,24.60
2023-10-23T18:08:34.242Z,33.08
2023-10-23T18:11:01.284Z,28.75
2023-10-23T18:13:28.000Z,24.30
2023-10-23T18:15:54.580Z,37.00
2023-10-23T18:18:21.223Z,40.45
2023-10-23T18:20:47.968Z,44.50
2023-10-23T18:23:15.006Z,53.58
2023-10-23T18:25:41.841Z,27.58
2023-10-23T18:28:08.479Z,17.65
2023-10-23T18:30:35.279Z,16.35
2023-10-23T18:33:02.192Z,12.68
2023-10-23T18:35:28.914Z,11.13
2023-10-23T18:37:55.648Z,11.25
2023-10-23T18:40:22.425Z,12.55
2023-10-23T18:42:55.220Z,10.70
2023-10-23T18:45:21.965Z,11.45
2023-10-23T18:47:48.752Z,13.95
2023-10-23T18:50:15.731Z,11.80
2023-10-23T18:52:42.438Z,12.80
2023-10-23T18:55:09.402Z,12.40
2023-10-23T18:57:36.739Z,11.23
2023-10-23T19:00:03.913Z,11.75
2023-10-23T19:02:30.691Z,13.90
2023-10-23T19:04:57.753Z,31.20
2023-10-23T19:07:24.477Z,40.30
2023-10-23T19:09:58.282Z,34.40
2023-10-23T19:12:25.174Z,25.75
2023-10-23T19:14:52.122Z,27.10
2023-10-23T19:17:33.054Z,24.08
2023-10-23T19:20:06.672Z,26.13
2023-10-23T19:22:35.670Z,24.42
2023-10-23T19:25:02.813Z,21.33
2023-10-23T19:27:29.521Z,21.27
2023-10-23T19:29:56.495Z,27.10
2023-10-23T19:32:23.152Z,30.90
2023-10-23T19:34:50.005Z,26.15
2023-10-23T19:37:16.872Z,19.23
2023-10-23T19:39:44.999Z,16.30
2023-10-23T19:42:14.668Z,16.50
2023-10-23T19:44:41.339Z,18.55
2023-10-23T19:47:08.297Z,16.70
2023-10-23T19:49:35.185Z,15.43
2023-10-23T19:52:02.644Z,17.63
2023-10-23T19:54:38.252Z,13.10
2023-10-23T19:57:15.147Z,13.77
2023-10-23T19:59:44.276Z,19.42
2023-10-23T20:02:11.195Z,14.07
2023-10-23T20:04:38.846Z,14.30
2023-10-23T20:07:05.644Z,18.92
2023-10-23T20:09:32.428Z,20.52
2023-10-23T20:11:59.105Z,23.23
2023-10-23T20:14:25.882Z,28.98
2023-10-23T20:16:52.577Z,28.05
2023-10-23T20:19:19.312Z,27.65
2023-10-23T20:21:46.167Z,26.20
2023-10-23T20:24:12.755Z,27.08
2023-10-23T20:26:41.066Z,29.35
2023-10-23T20:29:08.316Z,25.58
2023-10-23T20:31:35.375Z,23.38
2023-10-23T20:34:02.119Z,23.23
2023-10-23T20:36:28.911Z,20.38
2023-10-23T20:38:56.159Z,24.25
2023-10-23T20:41:22.785Z,18.38
2023-10-23T20:43:50.244Z,16.08
2023-10-23T20:46:17.423Z,28.58
2023-10-23T20:48:44.275Z,31.95
2023-10-23T20:51:11.280Z,24.88
2023-10-23T20:53:38.178Z,30.52
2023-10-23T20:56:05.041Z,33.78
2023-10-23T20:58:32.283Z,26.98
2023-10-23T21:01:04.544Z,30.83
2023-10-23T21:03:31.381Z,27.90
2023-10-23T21:06:02.136Z,28.73
2023-10-23T21:08:28.956Z,28.93
2023-10-23T21:10:55.559Z,30.67
2023-10-23T21:13:22.341Z,29.08
2023-10-23T21:15:48.950Z,35.95
2023-10-23T21:18:15.590Z,42.33
2023-10-23T21:20:42.295Z,45.03
2023-10-23T21:23:08.856Z,36.40
2023-10-23T21:25:35.659Z,38.95
2023-10-23T21:28:02.262Z,39.25
2023-10-23T21:30:28.840Z,26.08
2023-10-23T21:32:55.476Z,27.63
2023-10-23T21:35:22.139Z,22.40
2023-10-23T21:37:48.831Z,15.98
2023-10-23T21:40:15.845Z,18.10
2023-10-23T21:42:42.546Z,16.08
2023-10-23T21:45:09.291Z,12.70
2023-10-23T21:47:36.033Z,16.75
2023-10-23T21:50:02.788Z,14.95
2023-10-23T21:52:29.613Z,13.30
2023-10-23T21:55:02.658Z,13.52
2023-10-23T21:57:34.774Z,15.80
2023-10-23T22:00:02.559Z,15.80
2023-10-23T22:02:29.329Z,19.95
2023-10-23T22:04:55.960Z,21.08
2023-10-23T22:07:22.672Z,20.95
2023-10-23T22:09:49.543Z,21.02
2023-10-23T22:12:16.418Z,21.48
2023-10-23T22:14:43.172Z,13.77
2023-10-23T22:17:10.400Z,18.08
2023-10-23T22:19:37.340Z,22.13
2023-10-23T22:22:04.049Z,23.25
2023-10-23T22:24:30.620Z,22.90
2023-10-23T22:26:57.224Z,21.05
2023-10-23T22:29:23.833Z,21.45
2023-10-23T22:31:50.582Z,14.40
2023-10-23T22:34:17.248Z,14.93
2023-10-23T22:36:43.820Z,16.50
2023-10-23T22:39:11.918Z,14.27
2023-10-23T22:41:41.161Z,14.13
2023-10-23T22:44:08.069Z,14.23
2023-10-23T22:46:34.788Z,16.90
2023-10-23T22:49:01.400Z,16.70
2023-10-23T22:51:28.129Z,15.77
2023-10-23T22:53:54.825Z,16.13
2023-10-23T22:56:22.194Z,21.98
2023-10-23T22:58:49.189Z,23.08
2023-10-23T23:01:15.984Z,16.92
2023-10-23T23:03:42.867Z,15.68
2023-10-23T23:06:09.931Z,16.88
2023-10-23T23:08:42.623Z,17.45
2023-10-23T23:11:09.383Z,15.00
2023-10-23T23:13:36.247Z,15.77
2023-10-23T23:16:06.063Z,15.27
2023-10-23T23:18:52.981Z,16.10
2023-10-23T23:21:20.595Z,17.83
2023-10-23T23:23:47.226Z,16.45
2023-10-23T23:26:13.932Z,15.85
2023-10-23T23:28:40.638Z,15.75
2023-10-23T23:31:07.377Z,15.10
2023-10-23T23:33:34.538Z,15.80
2023-10-23T23:36:01.532Z,15.57
2023-10-23T23:38:28.089Z,12.55
2023-10-23T23:40:54.764Z,14.20
2023-10-23T23:43:21.458Z,14.57
2023-10-23T23:45:48.119Z,14.23
2023-10-23T23:48:15.877Z,18.02
2023-10-23T23:50:42.507Z,13.40
2023-10-23T23:53:09.088Z,14.02
2023-10-23T23:55:35.723Z,14.25
2023-10-23T23:58:02.286Z,14.48
